Time;durP1;ratioP1;P1;durP2;ratioP2;P2;SDS_P1;SDS_P2;PMS_P1;PMS_P2;Temp;Humidity;BMP_temperature;BMP_pressure;BME280_temperature;BME280_humidity;BME280_pressure;Samples;Min_cycle;Max_cycle;Signal;HPM_P1;HPM_P2
2021/09/09 00:02:00;;;;;;;;;25.00;22.33;;;;;24.28;68.85;100713.50;5059447;28;45341;-89
2021/09/09 00:04:25;;;;;;;;;21.67;21.67;;;;;24.27;69.39;100717.97;5040922;28;46104;-89
2021/09/09 00:06:51;;;;;;;;;20.00;19.50;;;;;24.33;69.90;100743.72;5032199;28;45274;-90
2021/09/09 00:09:18;;;;;;;;;19.00;19.00;;;;;24.28;69.53;100740.34;5024802;28;45239;-91
2021/09/09 00:11:43;;;;;;;;;21.33;21.33;;;;;24.25;69.15;100732.41;5042752;28;45448;-91
2021/09/09 00:14:09;;;;;;;;;24.67;20.00;;;;;24.24;69.34;100736.03;5042714;28;45311;-91
2021/09/09 00:16:35;;;;;;;;;24.00;22.33;;;;;24.18;69.10;100721.88;5043020;28;45406;-89
2021/09/09 00:19:00;;;;;;;;;23.67;21.00;;;;;24.20;69.47;100723.63;5034482;28;45435;-89
2021/09/09 00:21:26;;;;;;;;;20.00;18.00;;;;;24.21;69.72;100728.06;5032350;28;46091;-92
2021/09/09 00:23:51;;;;;;;;;19.33;19.33;;;;;24.30;69.60;100738.47;5038644;28;45251;-88
2021/09/09 00:26:17;;;;;;;;;23.33;20.33;;;;;24.28;69.61;100734.97;5046670;28;44781;-88
2021/09/09 00:28:42;;;;;;;;;25.00;20.67;;;;;24.25;69.30;100721.66;5046813;28;44921;-88
2021/09/09 00:31:08;;;;;;;;;21.33;20.67;;;;;24.17;69.86;100693.28;5053432;28;45233;-91
2021/09/09 00:33:33;;;;;;;;;18.67;18.00;;;;;24.20;69.67;100702.16;5022742;28;44859;-94
2021/09/09 00:35:59;;;;;;;;;20.67;20.33;;;;;24.12;69.92;100684.53;5040894;28;45246;-89
2021/09/09 00:38:24;;;;;;;;;18.67;17.00;;;;;24.22;69.74;100701.16;5040253;28;45468;-91
2021/09/09 00:40:50;;;;;;;;;14.00;11.67;;;;;24.13;69.72;100705.09;5039955;28;46329;-91
2021/09/09 00:43:15;;;;;;;;;20.33;20.00;;;;;24.17;69.60;100698.66;5040576;28;45341;-91
2021/09/09 00:45:48;;;;;;;;;18.33;15.33;;;;;24.21;70.10;100703.88;5040357;28;45229;-93
2021/09/09 00:48:13;;;;;;;;;19.67;17.67;;;;;24.09;70.26;100691.84;5022788;28;45447;-92
2021/09/09 00:50:38;;;;;;;;;21.00;18.67;;;;;24.14;70.16;100704.13;5047446;28;47020;-90
2021/09/09 00:53:06;;;;;;;;;22.00;19.67;;;;;24.11;69.86;100704.28;5051568;28;45263;-89
2021/09/09 00:55:32;;;;;;;;;22.33;20.33;;;;;24.11;69.84;100704.28;5027478;28;45373;-90
2021/09/09 00:57:57;;;;;;;;;20.67;19.00;;;;;24.15;69.72;100705.91;5025740;28;44985;-88
2021/09/09 01:00:23;;;;;;;;;18.00;17.33;;;;;24.04;70.22;100698.28;5049742;28;45261;-91
2021/09/09 01:02:48;;;;;;;;;22.00;20.00;;;;;24.08;69.90;100704.38;5045975;28;46049;-90
2021/09/09 01:05:14;;;;;;;;;20.00;20.00;;;;;23.95;69.70;100695.94;5046261;28;44872;-89
2021/09/09 01:07:40;;;;;;;;;25.67;19.67;;;;;23.96;70.09;100705.75;5054201;28;45374;-92
2021/09/09 01:10:06;;;;;;;;;19.67;19.33;;;;;24.05;69.80;100724.16;5045620;28;45469;-92
2021/09/09 01:12:32;;;;;;;;;22.00;18.67;;;;;24.05;70.15;100732.22;5044893;28;45303;-92
2021/09/09 01:14:57;;;;;;;;;16.67;16.67;;;;;24.04;69.89;100729.59;5036440;28;45391;-93
2021/09/09 01:17:22;;;;;;;;;20.00;18.33;;;;;24.03;69.79;100726.03;5065114;28;44856;-93
2021/09/09 01:19:53;;;;;;;;;21.00;17.33;;;;;24.03;69.45;100730.53;5046577;28;47005;-89
2021/09/09 01:22:18;;;;;;;;;19.00;14.67;;;;;23.92;69.84;100721.09;5064768;28;45133;-90
2021/09/09 01:24:44;;;;;;;;;23.00;20.67;;;;;24.01;70.19;100740.44;5065785;28;44809;-90
2021/09/09 01:27:09;;;;;;;;;18.00;16.33;;;;;23.88;69.47;100718.59;5049379;28;44888;-88
2021/09/09 01:29:38;;;;;;;;;22.33;19.67;;;;;23.99;70.06;100737.84;5065593;28;45069;-91
2021/09/09 01:32:05;;;;;;;;;27.00;22.67;;;;;23.89;69.44;100718.53;5048631;28;45067;-93
2021/09/09 01:34:31;;;;;;;;;23.33;20.67;;;;;23.92;69.81;100721.09;5048820;28;45034;-93
2021/09/09 01:36:57;;;;;;;;;20.00;19.00;;;;;23.95;69.09;100730.84;5064858;28;44873;-89
2021/09/09 01:39:23;;;;;;;;;18.33;17.67;;;;;23.89;69.40;100726.59;5066107;28;45621;-92
2021/09/09 01:41:50;;;;;;;;;19.00;18.33;;;;;23.81;69.89;100724.22;5065031;28;44867;-89
2021/09/09 01:44:16;;;;;;;;;21.67;21.67;;;;;23.85;69.45;100733.00;5064681;28;44718;-94
2021/09/09 01:46:41;;;;;;;;;23.33;20.67;;;;;23.78;69.18;100731.47;5064530;28;44742;-89
2021/09/09 01:49:07;;;;;;;;;19.00;17.00;;;;;23.74;69.43;100727.16;5063335;28;45310;-89
2021/09/09 01:51:33;;;;;;;;;22.67;18.33;;;;;23.78;69.19;100742.22;5065878;28;45426;-91
2021/09/09 01:53:58;;;;;;;;;19.33;19.33;;;;;23.82;69.35;100758.16;5064983;28;44667;-89
2021/09/09 01:56:23;;;;;;;;;22.67;21.00;;;;;23.76;69.44;100747.66;5066045;28;44762;-91
2021/09/09 01:58:49;;;;;;;;;23.33;21.00;;;;;23.70;69.66;100740.72;5061119;28;45402;-89
2021/09/09 02:01:15;;;;;;;;;23.67;20.33;;;;;23.76;69.49;100747.66;5062700;28;45407;-89
2021/09/09 02:03:41;;;;;;;;;26.00;23.33;;;;;23.79;69.95;100757.41;5044603;28;44763;-87
2021/09/09 02:06:06;;;;;;;;;20.67;19.00;;;;;23.76;69.49;100742.28;5062396;28;44886;-88
2021/09/09 02:08:32;;;;;;;;;27.67;25.67;;;;;23.66;69.48;100731.03;5061421;28;45330;-87
2021/09/09 02:10:57;;;;;;;;;25.67;23.33;;;;;23.65;70.01;100733.78;5059872;28;44770;-90
2021/09/09 02:13:23;;;;;;;;;24.67;22.67;;;;;23.60;70.14;100720.53;5042938;28;44838;-86
2021/09/09 02:15:48;;;;;;;;;23.00;22.33;;;;;23.72;69.61;100754.06;5043109;28;44786;-88
2021/09/09 02:18:13;;;;;;;;;23.67;21.00;;;;;23.69;70.12;100754.19;5057794;28;46295;-88
2021/09/09 02:20:39;;;;;;;;;20.00;20.00;;;;;23.71;69.89;100755.03;5039623;28;45324;-90
2021/09/09 02:23:05;;;;;;;;;25.67;23.00;;;;;23.61;69.65;100733.00;5050763;28;45519;-89
2021/09/09 02:25:31;;;;;;;;;21.33;20.33;;;;;23.71;70.32;100746.97;5044534;28;45428;-91
2021/09/09 02:27:56;;;;;;;;;24.67;22.33;;;;;23.58;70.02;100725.94;5040814;28;46705;-88
2021/09/09 02:30:22;;;;;;;;;24.00;22.00;;;;;23.68;69.80;100742.59;5059313;28;45186;-88
2021/09/09 02:32:48;;;;;;;;;23.67;21.00;;;;;23.65;69.92;100733.78;5040970;28;44761;-92
2021/09/09 02:35:13;;;;;;;;;24.33;22.00;;;;;23.64;69.82;100737.38;5037340;28;45328;-89
2021/09/09 02:37:39;;;;;;;;;19.33;19.00;;;;;23.68;70.25;100750.63;5053826;28;45208;-89
2021/09/09 02:40:06;;;;;;;;;23.33;21.67;;;;;23.68;70.44;100755.13;5058206;28;45134;-88
2021/09/09 02:42:32;;;;;;;;;26.67;24.00;;;;;23.65;70.24;100750.75;5063508;28;44708;-90
2021/09/09 02:44:57;;;;;;;;;24.67;23.33;;;;;23.55;70.34;100735.91;5045081;28;45169;-88
2021/09/09 02:47:23;;;;;;;;;22.00;19.33;;;;;23.59;70.01;100746.47;5045319;28;46995;-90
2021/09/09 02:49:48;;;;;;;;;28.33;22.00;;;;;23.64;69.97;100757.06;5041269;28;45478;-88
2021/09/09 02:52:14;;;;;;;;;23.33;21.00;;;;;23.60;70.04;100753.59;5060581;28;44826;-89
2021/09/09 02:54:39;;;;;;;;;23.33;23.33;;;;;23.57;70.22;100745.66;5044009;28;44859;-90
2021/09/09 02:57:05;;;;;;;;;22.33;21.67;;;;;23.62;70.38;100756.22;5043376;28;47009;-88
2021/09/09 02:59:31;;;;;;;;;25.33;23.33;;;;;23.57;70.02;100744.78;5042629;28;45427;-87
2021/09/09 03:01:56;;;;;;;;;24.33;23.00;;;;;23.54;70.29;100742.22;5033569;28;45458;-88
2021/09/09 03:04:21;;;;;;;;;24.00;23.00;;;;;23.55;70.06;100741.28;5042226;28;45257;-92
2021/09/09 03:06:47;;;;;;;;;21.33;20.33;;;;;23.55;70.11;100738.59;5024384;28;48239;-88
2021/09/09 03:09:17;;;;;;;;;23.00;20.67;;;;;23.60;70.23;100740.16;5044283;28;45442;-88
2021/09/09 03:11:43;;;;;;;;;24.67;24.67;;;;;23.51;69.76;100719.06;5045887;28;45557;-91
2021/09/09 03:14:08;;;;;;;;;23.67;23.33;;;;;23.57;70.08;100742.09;5027038;28;45402;-89
2021/09/09 03:16:34;;;;;;;;;28.67;25.33;;;;;23.48;70.30;100735.25;5026388;28;47049;-88
2021/09/09 03:18:59;;;;;;;;;24.00;21.00;;;;;23.56;69.95;100757.31;5041346;28;45742;-88
2021/09/09 03:21:25;;;;;;;;;29.33;27.67;;;;;23.39;69.42;100731.09;5042999;28;45579;-89
2021/09/09 03:23:50;;;;;;;;;27.67;25.33;;;;;23.39;70.18;100725.75;5024731;28;45530;-89
2021/09/09 03:26:15;;;;;;;;;27.33;26.67;;;;;23.48;69.91;100743.31;5041953;28;45817;-89
2021/09/09 03:28:41;;;;;;;;;26.00;20.33;;;;;23.53;70.12;100745.84;5044151;28;45453;-89
2021/09/09 03:31:06;;;;;;;;;31.67;25.33;;;;;23.46;69.96;100737.13;5027474;28;45363;-88
2021/09/09 03:33:32;;;;;;;;;28.33;26.67;;;;;23.43;69.84;100723.81;5043724;28;45259;-91
2021/09/09 03:35:57;;;;;;;;;25.33;24.67;;;;;23.36;69.73;100704.38;5023133;28;47075;-88
2021/09/09 03:38:23;;;;;;;;;26.00;24.00;;;;;23.39;70.01;100706.97;5022335;28;45375;-87
2021/09/09 03:40:48;;;;;;;;;23.00;22.00;;;;;23.50;69.74;100724.50;5023286;28;45467;-90
2021/09/09 03:43:14;;;;;;;;;25.00;23.67;;;;;23.48;69.75;100728.09;5041459;28;45593;-90
2021/09/09 03:45:39;;;;;;;;;27.00;23.33;;;;;23.34;70.40;100698.19;5041757;28;45515;-90
2021/09/09 03:48:04;;;;;;;;;27.33;25.33;;;;;23.37;70.34;100706.16;5041612;28;45338;-91
2021/09/09 03:50:30;;;;;;;;;32.00;27.00;;;;;23.31;69.71;100699.19;5040868;28;45308;-91
2021/09/09 03:52:55;;;;;;;;;24.33;22.67;;;;;23.43;70.09;100726.50;5023427;28;45583;-91
2021/09/09 03:55:21;;;;;;;;;27.33;23.00;;;;;23.27;69.55;100699.38;5038717;28;48163;-91
2021/09/09 03:57:48;;;;;;;;;29.33;25.00;;;;;23.36;70.11;100723.16;5040329;28;45331;-92
2021/09/09 04:00:14;;;;;;;;;28.33;26.00;;;;;23.40;70.45;100726.59;5039933;28;45493;-92
2021/09/09 04:02:40;;;;;;;;;30.33;28.33;;;;;23.35;70.40;100721.41;5021990;28;45526;-92
2021/09/09 04:05:06;;;;;;;;;25.33;24.00;;;;;23.30;70.31;100718.00;5021794;28;46483;-93
2021/09/09 04:07:32;;;;;;;;;28.00;23.33;;;;;23.30;69.52;100715.34;5038294;28;45459;-93
2021/09/09 04:09:57;;;;;;;;;28.00;26.67;;;;;23.34;69.67;100722.34;5022063;28;45459;-93
2021/09/09 04:12:23;;;;;;;;;26.33;24.33;;;;;23.31;69.99;100711.75;5038971;28;45466;-92
2021/09/09 04:14:48;;;;;;;;;30.00;27.00;;;;;23.27;70.02;100707.41;5039022;28;47918;-93
2021/09/09 04:17:13;;;;;;;;;31.33;29.00;;;;;23.33;69.90;100718.78;5021575;28;45332;-92
2021/09/09 04:19:39;;;;;;;;;26.00;22.67;;;;;23.31;70.13;100719.78;5021804;28;45599;-93
2021/09/09 04:22:07;;;;;;;;;26.00;24.00;;;;;23.24;70.12;100703.91;5039506;28;45323;-92
2021/09/09 04:24:34;;;;;;;;;33.00;26.67;;;;;23.27;69.96;100705.59;5020060;28;48094;-92
2021/09/09 04:26:59;;;;;;;;;28.00;24.00;;;;;23.21;69.97;100697.78;5021533;28;45843;-92
2021/09/09 04:29:26;;;;;;;;;30.33;27.00;;;;;23.25;69.93;100705.66;5021627;28;45432;-90
2021/09/09 04:31:51;;;;;;;;;28.75;26.25;;;;;23.24;70.58;100719.13;5039489;28;45363;-91
2021/09/09 04:34:16;;;;;;;;;33.33;25.33;;;;;23.18;70.17;100706.78;5020795;28;47263;-93
2021/09/09 04:36:42;;;;;;;;;27.67;22.67;;;;;23.18;69.60;100703.25;5020923;28;45921;-92
2021/09/09 04:39:07;;;;;;;;;23.00;22.00;;;;;23.19;69.66;100705.88;5021437;28;45411;-92
2021/09/09 04:41:34;;;;;;;;;27.00;23.33;;;;;23.14;70.00;100689.94;5037414;28;45421;-94
2021/09/09 04:44:00;;;;;;;;;26.33;24.00;;;;;23.14;70.25;100695.31;5038973;28;45496;-92
2021/09/09 04:46:25;;;;;;;;;27.33;25.33;;;;;23.11;69.96;100689.19;5041239;28;45399;-89
2021/09/09 04:48:50;;;;;;;;;27.67;27.67;;;;;23.06;69.78;100678.63;5046721;28;45903;-92
2021/09/09 04:51:16;;;;;;;;;34.00;25.33;;;;;23.02;69.80;100666.28;5030347;28;45340;-90
2021/09/09 04:53:41;;;;;;;;;29.33;26.67;;;;;23.08;70.22;100687.50;5060685;28;45559;-89
2021/09/09 04:56:06;;;;;;;;;29.67;25.67;;;;;23.06;70.40;100685.78;5064328;28;44860;-88
2021/09/09 04:58:32;;;;;;;;;27.67;26.67;;;;;22.96;70.16;100672.72;5047618;28;44782;-91
2021/09/09 05:00:57;;;;;;;;;30.00;26.00;;;;;23.00;70.24;100682.41;5045870;28;45223;-92
2021/09/09 05:03:23;;;;;;;;;27.67;23.67;;;;;23.07;70.65;100700.97;5021672;28;46998;-92
2021/09/09 05:05:48;;;;;;;;;33.75;28.25;;;;;23.08;70.39;100700.91;5040182;28;45969;-92
2021/09/09 05:08:14;;;;;;;;;28.00;26.67;;;;;22.98;70.34;100680.72;5021553;28;45324;-94
2021/09/09 05:10:40;;;;;;;;;27.00;24.67;;;;;23.00;70.50;100690.47;5039107;28;45426;-92
2021/09/09 05:13:05;;;;;;;;;30.67;29.00;;;;;22.97;70.29;100679.84;5022393;28;48012;-90
2021/09/09 05:15:31;;;;;;;;;27.00;25.67;;;;;22.98;70.23;100686.06;5040423;28;45252;-90
2021/09/09 05:17:58;;;;;;;;;32.00;27.67;;;;;23.03;70.49;100694.84;5040166;28;45305;-91
2021/09/09 05:20:23;;;;;;;;;28.33;28.33;;;;;22.99;70.38;100691.38;5041059;28;45367;-91
2021/09/09 05:22:48;;;;;;;;;31.33;27.00;;;;;22.98;70.24;100692.31;5021837;28;46915;-90
2021/09/09 05:25:14;;;;;;;;;30.00;28.67;;;;;22.91;70.42;100680.03;5021742;28;45341;-92
2021/09/09 05:27:40;;;;;;;;;30.00;27.00;;;;;22.99;70.41;100698.56;5039078;28;45306;-91
2021/09/09 05:30:06;;;;;;;;;26.00;25.33;;;;;22.95;70.11;100692.41;5039772;28;45596;-93
2021/09/09 05:32:33;;;;;;;;;32.00;29.67;;;;;22.99;70.36;100704.78;5022248;28;48986;-93
2021/09/09 05:34:58;;;;;;;;;41.50;33.75;;;;;22.99;70.26;100706.59;5039561;28;45494;-91
2021/09/09 05:37:24;;;;;;;;;36.33;30.67;;;;;22.90;70.34;100702.44;5037394;28;45343;-89
2021/09/09 05:39:50;;;;;;;;;32.33;28.67;;;;;22.99;70.03;100715.50;5020257;28;45559;-82
2021/09/09 05:42:16;;;;;;;;;28.67;26.33;;;;;22.94;69.91;100705.88;5037402;28;45346;-83
2021/09/09 05:44:41;;;;;;;;;36.00;31.00;;;;;22.98;70.33;100724.47;5037514;28;45400;-83
2021/09/09 05:47:08;;;;;;;;;38.50;31.50;;;;;22.99;69.73;100730.72;5036577;28;45462;-84
2021/09/09 05:49:34;;;;;;;;;31.25;29.25;;;;;22.99;69.86;100747.66;5036778;28;45276;-81
2021/09/09 05:52:00;;;;;;;;;31.33;29.67;;;;;22.97;69.87;100749.53;5036381;28;45395;-81
2021/09/09 05:54:25;;;;;;;;;35.50;30.50;;;;;22.98;70.56;100762.00;5036577;28;45403;-82
2021/09/09 05:56:50;;;;;;;;;33.50;30.25;;;;;22.96;70.21;100754.94;5037058;28;45208;-81
2021/09/09 05:59:16;;;;;;;;;36.75;30.50;;;;;22.93;70.21;100747.88;5036665;28;45336;-81
2021/09/09 06:01:41;;;;;;;;;29.00;26.75;;;;;22.96;70.18;100762.97;5036850;28;46814;-81
2021/09/09 06:04:10;;;;;;;;;39.33;30.67;;;;;22.94;70.06;100763.03;5018504;28;45443;-82
2021/09/09 06:06:36;;;;;;;;;32.50;30.25;;;;;22.92;69.91;100764.00;5036519;28;45430;-81
2021/09/09 06:09:02;;;;;;;;;30.33;28.67;;;;;22.89;69.56;100757.84;5036115;28;45442;-80
2021/09/09 06:11:28;;;;;;;;;35.75;30.25;;;;;22.88;69.55;100761.47;5036321;28;46411;-82
2021/09/09 06:13:53;;;;;;;;;37.75;32.00;;;;;22.86;70.05;100768.69;5036279;28;45354;-82
2021/09/09 06:16:18;;;;;;;;;30.00;27.67;;;;;22.86;69.80;100767.78;5037004;28;45754;-82
2021/09/09 06:18:44;;;;;;;;;29.33;28.00;;;;;22.85;70.29;100766.03;5036583;28;45282;-82
2021/09/09 06:21:09;;;;;;;;;29.33;29.33;;;;;22.85;70.15;100769.59;5035801;28;45284;-81
2021/09/09 06:23:34;;;;;;;;;30.25;29.00;;;;;22.84;69.56;100767.84;5036383;28;45399;-83
2021/09/09 06:26:00;;;;;;;;;31.00;29.25;;;;;22.81;69.41;100770.63;5036364;28;45766;-82
2021/09/09 06:28:25;;;;;;;;;33.75;30.00;;;;;22.83;69.94;100778.59;5041742;28;45228;-84
2021/09/09 06:30:51;;;;;;;;;32.00;25.67;;;;;22.82;70.02;100768.81;5033065;28;47283;-91
2021/09/09 06:33:16;;;;;;;;;34.00;28.75;;;;;22.77;70.04;100766.28;5117643;22;45278;-93
2021/09/09 06:35:43;;;;;;;;;39.25;33.00;;;;;22.81;70.64;100775.09;5002245;28;45320;-86
2021/09/09 06:38:09;;;;;;;;;31.00;28.50;;;;;22.82;70.04;100782.22;5020321;28;45344;-94
2021/09/09 06:40:34;;;;;;;;;31.50;28.75;;;;;22.75;70.34;100771.72;5005842;28;46848;-88
2021/09/09 06:42:59;;;;;;;;;32.50;29.50;;;;;22.82;69.75;100783.09;5023543;28;45395;-91
2021/09/09 06:45:25;;;;;;;;;30.00;25.33;;;;;22.77;69.89;100777.91;5018580;28;45486;-94
2021/09/09 06:47:50;;;;;;;;;34.00;24.67;;;;;22.76;70.11;100792.19;5003599;28;45373;-92
2021/09/09 06:50:16;;;;;;;;;30.25;28.75;;;;;22.81;69.97;100800.09;5003776;28;48258;-93
2021/09/09 06:52:41;;;;;;;;;35.50;31.75;;;;;22.73;70.05;100800.34;5021723;28;45345;-89
2021/09/09 06:55:09;;;;;;;;;29.50;29.25;;;;;22.69;69.79;100788.00;5020273;28;45256;-91
2021/09/09 06:57:34;;;;;;;;;32.67;29.00;;;;;22.70;70.26;100789.72;5003467;28;45402;-88
2021/09/09 07:00:00;;;;;;;;;29.00;24.00;;;;;22.73;70.37;100786.97;5021234;28;45974;-91
2021/09/09 07:02:25;;;;;;;;;31.33;26.00;;;;;22.76;70.18;100794.03;5021311;28;45470;-92
2021/09/09 07:04:50;;;;;;;;;31.33;29.00;;;;;22.72;70.19;100782.50;5005287;28;45463;-87
2021/09/09 07:07:16;;;;;;;;;30.33;28.00;;;;;22.81;70.28;100796.53;5022067;28;45272;-92
2021/09/09 07:09:41;;;;;;;;;31.00;26.67;;;;;22.83;70.39;100805.41;5021344;28;45887;-92
2021/09/09 07:12:07;;;;;;;;;27.00;26.33;;;;;22.82;70.49;100803.66;5021884;28;45317;-90
2021/09/09 07:14:32;;;;;;;;;27.33;25.67;;;;;22.83;70.04;100811.63;5002278;28;45243;-94
2021/09/09 07:16:57;;;;;;;;;30.00;24.67;;;;;22.80;70.25;100798.38;5020898;28;45349;-92
2021/09/09 07:19:23;;;;;;;;;24.67;24.00;;;;;22.81;69.87;100785.81;5019313;28;48255;-90
2021/09/09 07:21:50;;;;;;;;;25.33;24.33;;;;;22.82;69.97;100791.16;5020247;28;45237;-89
2021/09/09 07:24:19;;;;;;;;;34.67;29.33;;;;;22.86;70.10;100799.94;5003308;28;45569;-88
2021/09/09 07:26:48;;;;;;;;;34.33;27.33;;;;;22.87;70.22;100812.41;5020982;28;45423;-94
2021/09/09 07:29:14;;;;;;;;;28.33;24.00;;;;;22.87;69.96;100801.69;5018465;28;48338;-90
2021/09/09 07:31:41;;;;;;;;;20.67;19.00;;;;;22.83;69.79;100797.34;5001672;28;45373;-88
2021/09/09 07:34:07;;;;;;;;;29.67;26.00;;;;;22.79;69.44;100797.47;5002684;28;45498;-93
2021/09/09 07:36:32;;;;;;;;;29.00;24.33;;;;;22.87;69.92;100799.88;5020909;28;45436;-95
2021/09/09 07:39:00;;;;;;;;;29.33;24.33;;;;;22.83;69.67;100794.69;5002188;28;48085;-93
2021/09/09 07:41:26;;;;;;;;;27.00;23.67;;;;;22.91;70.10;100808.69;5020772;28;45281;-90
2021/09/09 07:43:51;;;;;;;;;27.00;22.67;;;;;22.82;69.64;100793.81;5019269;28;45285;-91
2021/09/09 07:46:16;;;;;;;;;32.33;25.67;;;;;22.89;69.83;100799.84;5020959;28;45414;-90
2021/09/09 07:48:42;;;;;;;;;23.67;22.67;;;;;22.88;69.50;100798.97;5021301;28;46598;-91
2021/09/09 07:51:07;;;;;;;;;26.00;25.33;;;;;22.96;69.18;100806.75;5021371;28;45272;-90
2021/09/09 07:53:33;;;;;;;;;31.00;25.33;;;;;22.96;69.20;100814.78;5021731;28;45186;-91
2021/09/09 07:55:58;;;;;;;;;32.00;28.33;;;;;22.85;68.83;100792.81;5003671;28;45314;-89
2021/09/09 07:58:24;;;;;;;;;27.00;25.67;;;;;22.89;68.96;100798.03;5021645;28;46152;-93
2021/09/09 08:00:49;;;;;;;;;31.67;28.00;;;;;22.94;69.36;100805.94;5021386;28;45269;-89
2021/09/09 08:03:15;;;;;;;;;29.33;25.67;;;;;22.99;68.84;100808.47;5021755;28;45312;-92
2021/09/09 08:05:40;;;;;;;;;29.00;26.67;;;;;22.95;68.89;100794.25;5002772;28;45392;-88
2021/09/09 08:08:06;;;;;;;;;23.33;21.00;;;;;22.99;69.18;100789.69;5022150;28;46414;-87
2021/09/09 08:10:32;;;;;;;;;33.00;25.33;;;;;23.00;69.42;100803.03;5021946;28;45332;-88
2021/09/09 08:12:58;;;;;;;;;31.00;28.00;;;;;23.07;69.77;100813.56;5023053;28;45237;-89
2021/09/09 08:15:23;;;;;;;;;28.33;25.67;;;;;22.96;69.49;100796.03;5023707;28;45339;-91
2021/09/09 08:17:49;;;;;;;;;30.00;25.33;;;;;23.04;69.21;100805.59;5022133;28;45419;-88
2021/09/09 08:20:15;;;;;;;;;28.67;25.67;;;;;23.11;69.60;100824.13;5025192;28;45315;-92
2021/09/09 08:22:42;;;;;;;;;29.33;26.33;;;;;23.12;69.67;100815.13;5024727;28;45229;-92
2021/09/09 08:25:09;;;;;;;;;30.00;27.00;;;;;23.08;69.17;100810.81;5032267;28;45222;-89
2021/09/09 08:27:34;;;;;;;;;26.33;26.33;;;;;23.13;69.26;100821.38;5012755;28;48140;-87
2021/09/09 08:30:00;;;;;;;;;26.67;25.33;;;;;23.06;69.08;100810.00;5035475;28;44773;-86
2021/09/09 08:32:26;;;;;;;;;33.33;24.67;;;;;23.06;69.26;100806.44;5021566;28;44758;-88
2021/09/09 08:34:56;;;;;;;;;30.33;27.00;;;;;23.04;69.97;100802.91;5038750;28;44832;-92
2021/09/09 08:37:22;;;;;;;;;26.33;26.33;;;;;23.18;70.20;100826.59;5008080;28;47472;-87
2021/09/09 08:39:48;;;;;;;;;33.33;28.67;;;;;23.12;69.78;100816.94;5029773;28;45487;-92
2021/09/09 08:42:14;;;;;;;;;28.67;27.00;;;;;23.21;70.08;100827.34;5021492;28;45344;-90
2021/09/09 08:44:39;;;;;;;;;31.00;28.00;;;;;23.09;69.68;100804.53;5005244;28;45309;-93
2021/09/09 08:47:08;;;;;;;;;28.00;26.33;;;;;23.20;69.49;100825.63;5022633;28;46081;-90
2021/09/09 08:49:34;;;;;;;;;30.00;23.33;;;;;23.21;68.91;100822.00;5005068;28;45412;-86
2021/09/09 08:51:59;;;;;;;;;29.33;25.00;;;;;23.10;68.71;100813.44;5024969;28;45457;-92
2021/09/09 08:54:26;;;;;;;;;24.00;23.00;;;;;23.21;68.81;100832.72;5024119;28;45312;-91
2021/09/09 08:56:53;;;;;;;;;25.00;22.67;;;;;23.16;68.77;100826.63;5024337;28;46635;-89
2021/09/09 08:59:18;;;;;;;;;30.00;26.00;;;;;23.21;69.10;100838.09;5021465;28;45317;-87
2021/09/09 09:02:08;;;;;;;;;26.00;23.67;;;;;23.17;69.38;100833.75;5022827;28;45353;-91
2021/09/09 09:04:35;;;;;;;;;26.33;24.67;;;;;23.11;69.10;100816.09;5022470;28;45391;-90
2021/09/09 09:07:03;;;;;;;;;26.33;24.67;;;;;23.16;68.88;100837.34;5003955;28;47378;-93
2021/09/09 09:09:33;;;;;;;;;23.33;22.00;;;;;23.14;68.89;100837.41;5021615;28;45697;-95
2021/09/09 09:11:58;;;;;;;;;24.67;23.67;;;;;23.04;69.04;100819.88;5024279;28;45265;-90
2021/09/09 09:14:25;;;;;;;;;21.67;21.00;;;;;23.14;68.95;100840.09;5023677;28;45456;-93
2021/09/09 09:16:56;;;;;;;;;25.00;21.67;;;;;23.04;68.70;100825.25;5013167;28;47760;-89
2021/09/09 09:19:24;;;;;;;;;25.33;23.33;;;;;23.17;68.59;100833.75;5029651;28;45270;-85
2021/09/09 09:22:05;;;;;;;;;27.67;22.00;;;;;23.14;68.94;100825.81;5030253;28;44758;-94
2021/09/09 09:24:33;;;;;;;;;28.33;21.67;;;;;23.22;69.17;100833.59;5035721;28;45487;-85
2021/09/09 09:27:13;;;;;;;;;27.00;23.67;;;;;23.20;68.90;100831.00;5016032;28;47504;-86
2021/09/09 09:29:42;;;;;;;;;27.00;22.00;;;;;23.28;69.09;100837.88;5033179;28;45145;-87
2021/09/09 09:32:13;;;;;;;;;24.00;20.00;;;;;23.24;68.74;100821.91;5021838;28;45475;-91
2021/09/09 09:34:39;;;;;;;;;18.33;18.33;;;;;23.30;68.61;100830.66;5021167;28;45195;-91
2021/09/09 09:37:06;;;;;;;;;23.00;21.33;;;;;23.34;69.23;100835.88;5021050;28;45359;-89
2021/09/09 09:39:32;;;;;;;;;21.50;19.00;;;;;23.42;69.21;100848.13;5002697;28;45716;-93
2021/09/09 09:42:00;;;;;;;;;23.33;20.33;;;;;23.42;68.93;100842.75;5020551;28;45241;-90
2021/09/09 09:44:38;;;;;;;;;23.00;21.33;;;;;23.48;68.93;100837.19;5019721;28;45249;-91
2021/09/09 09:47:14;;;;;;;;;23.33;23.00;;;;;23.54;69.25;100846.84;5020345;28;45888;-89
2021/09/09 09:50:00;;;;;;;;;21.33;20.67;;;;;23.63;69.47;100830.41;5018491;28;46023;-94
2021/09/09 09:52:29;;;;;;;;;26.67;24.00;;;;;23.73;69.60;100827.41;4986090;28;45378;-95
2021/09/09 09:55:01;;;;;;;;;21.67;21.33;;;;;23.90;68.43;100840.22;5020426;28;45265;-93
2021/09/09 09:57:33;;;;;;;;;23.00;21.67;;;;;24.06;68.51;100836.00;5019728;28;46143;-93
2021/09/09 09:59:58;;;;;;;;;21.00;20.67;;;;;24.18;68.29;100831.97;5020147;28;45238;-90
2021/09/09 10:02:24;;;;;;;;;18.00;17.67;;;;;24.24;67.95;100821.97;5019644;28;45313;-90
2021/09/09 10:04:50;;;;;;;;;19.33;16.33;;;;;24.36;67.83;100834.03;5021255;28;45337;-90
2021/09/09 10:07:16;;;;;;;;;25.00;23.00;;;;;24.37;67.74;100830.41;5021526;28;46102;-96
2021/09/09 10:09:43;;;;;;;;;25.25;24.00;;;;;24.46;66.77;100838.13;5003834;28;45982;-92
2021/09/09 10:12:10;;;;;;;;;20.33;19.67;;;;;24.40;67.06;100817.75;5020951;28;45231;-93
2021/09/09 10:14:45;;;;;;;;;17.33;17.00;;;;;24.56;66.60;100837.75;5023192;28;44929;-88
2021/09/09 10:17:12;;;;;;;;;24.33;22.67;;;;;24.65;66.30;100829.31;5019158;28;45409;-93
2021/09/09 10:19:38;;;;;;;;;28.00;22.33;;;;;24.94;66.43;100838.00;5019638;28;45344;-96
2021/09/09 10:22:03;;;;;;;;;25.33;21.00;;;;;25.23;66.32;100837.75;5019131;28;45336;-86
2021/09/09 10:24:31;;;;;;;;;23.00;19.33;;;;;25.48;65.50;100839.38;5021759;28;45466;-90
2021/09/09 10:27:35;;;;;;;;;27.00;20.67;;;;;25.64;64.98;100835.97;5021394;28;45689;-91
2021/09/09 10:30:05;;;;;;;;;22.33;21.67;;;;;25.76;64.59;100827.38;5019757;28;45610;-90
2021/09/09 10:32:34;;;;;;;;;28.33;24.00;;;;;25.98;64.45;100834.47;5021225;28;45205;-88
2021/09/09 10:35:18;;;;;;;;;25.00;22.00;;;;;26.18;63.96;100832.69;5023740;28;45309;-95
2021/09/09 10:37:46;;;;;;;;;19.67;17.00;;;;;26.29;63.27;100836.69;5024512;28;46628;-93
2021/09/09 10:40:37;;;;;;;;;18.67;18.67;;;;;26.33;62.73;100830.22;5024078;28;45337;-93
2021/09/09 10:43:10;;;;;;;;;21.33;17.67;;;;;26.35;62.42;100825.63;5024301;28;45293;-95
2021/09/09 10:45:36;;;;;;;;;17.00;16.33;;;;;26.34;62.04;100829.25;5023701;28;45565;-91
2021/09/09 10:48:04;;;;;;;;;21.00;19.00;;;;;26.47;62.18;100819.66;5021606;28;46334;-94
2021/09/09 10:50:29;;;;;;;;;17.33;17.33;;;;;26.78;61.50;100828.06;5004577;28;45493;-93
2021/09/09 10:53:05;;;;;;;;;16.33;15.33;;;;;28.08;61.38;100837.63;5009252;28;45388;-90
2021/09/09 10:55:34;;;;;;;;;16.00;14.33;;;;;28.95;59.18;100828.28;5029503;28;45351;-92
2021/09/09 10:58:15;;;;;;;;;12.67;11.00;;;;;30.40;56.66;100837.56;4993110;28;47318;-96
2021/09/09 11:00:50;;;;;;;;;12.33;11.67;;;;;31.73;54.99;100835.94;5025100;28;45269;-85
2021/09/09 11:03:36;;;;;;;;;13.00;11.00;;;;;32.88;51.93;100834.03;5039551;28;44768;-88
2021/09/09 11:06:05;;;;;;;;;13.33;10.67;;;;;33.77;49.80;100830.94;5044889;28;45442;-86
2021/09/09 11:08:31;;;;;;;;;11.67;10.67;;;;;34.51;47.61;100832.25;5044173;28;47314;-86